Maya — V7MU3 — position and weather

sailwx.info

Track history (hours):
 
Tides and Currents Weather Stations Pressure Air Temp Water Temp Dewpoint Dewpoint Depression Visibility Wind Speed Wind Dir Waves Ship Positions

Maya

Last reported at 2017-Sep-26 07:46 UTC. Time now 2017-Sep-26 09:30 UTC.
Position N 29°32' W 094°54'.

Length 119 m; draft 9.2 m.

Type: Ship (hazmat cat B). MMSI: 538002900.

Date/timePositionNaut miles runAvg speedWind from/ knotsBaromVisibWave heightAir tempDewpointWater temp
2017-Sep-26 07:46N 29°32' W 094°54'2 8.7
2017-Sep-26 07:30N 29°34' W 094°55'4 7.3
2017-Sep-26 06:55N 29°37' W 094°58'2 5.5
2017-Sep-26 06:30N 29°37' W 095°01'0 1.0
2017-Sep-26 06:00N 29°37' W 095°01'0 0.0
2017-Sep-26 05:30N 29°37' W 095°01'0 0.0
2017-Sep-26 05:00N 29°37' W 095°01'0 0.0
2017-Sep-26 04:30N 29°37' W 095°01'0 0.0
2017-Sep-26 04:00N 29°37' W 095°01'0 0.0
2017-Sep-26 03:30N 29°37' W 095°01'0 0.0
2017-Sep-26 02:55N 29°37' W 095°01'0 0.0
2017-Sep-26 02:25N 29°37' W 095°01'0 0.0
2017-Sep-26 02:00N 29°37' W 095°01'0 0.0
2017-Sep-26 01:24N 29°37' W 095°01'0 0.0
2017-Sep-26 00:55N 29°37' W 095°01'0 0.0
2017-Sep-26 00:25N 29°37' W 095°01'0 0.0
2017-Sep-26 00:00N 29°37' W 095°01'0 0.0
2017-Sep-25 23:30N 29°37' W 095°01'0 0.0
2017-Sep-25 23:00N 29°37' W 095°01'0 0.0
2017-Sep-25 22:25N 29°37' W 095°01'0 0.0
2017-Sep-25 21:50N 29°37' W 095°01'0 0.0
2017-Sep-25 21:30N 29°37' W 095°01'0 0.0
2017-Sep-25 20:56N 29°37' W 095°01'0 0.0
2017-Sep-25 20:26N 29°37' W 095°01'0 0.0
2017-Sep-25 19:48N 29°37' W 095°01'0 0.0
2017-Sep-25 19:26N 29°37' W 095°01'0 0.0
2017-Sep-25 19:00N 29°37' W 095°01'0 0.0
2017-Sep-25 18:26N 29°37' W 095°01'0 0.0
2017-Sep-25 18:00N 29°37' W 095°01'0 0.0
2017-Sep-25 17:30N 29°37' W 095°01'0 0.0
2017-Sep-25 17:00N 29°37' W 095°01'0 0.0
2017-Sep-25 16:30N 29°37' W 095°01'0 0.0
2017-Sep-25 16:00N 29°37' W 095°01'0 0.0
2017-Sep-25 15:30N 29°37' W 095°01'0 0.0
2017-Sep-25 15:00N 29°37' W 095°01'0 0.0
2017-Sep-25 14:26N 29°37' W 095°01'0 0.0
2017-Sep-25 14:00N 29°37' W 095°01'0 0.0
2017-Sep-25 13:30N 29°37' W 095°01'0 0.0
2017-Sep-25 12:56N 29°37' W 095°01'0 0.0
2017-Sep-25 12:24N 29°37' W 095°01'0 0.0
2017-Sep-25 12:00N 29°37' W 095°01'0 0.0
2017-Sep-25 10:00N 29°37' W 095°01'0 0.0
2017-Sep-25 09:30N 29°37' W 095°01'0 0.0
2017-Sep-25 09:00N 29°37' W 095°01'0 0.0
2017-Sep-25 08:30N 29°37' W 095°01'0 0.0
2017-Sep-25 07:56N 29°37' W 095°01'0 0.0
2017-Sep-25 07:30N 29°37' W 095°01'0 0.0
2017-Sep-25 06:56N 29°37' W 095°01'0 0.0
2017-Sep-25 06:30N 29°37' W 095°01'0 0.0
2017-Sep-25 05:56N 29°37' W 095°01'0 0.0
2017-Sep-25 05:30N 29°37' W 095°01'0 0.0
2017-Sep-25 05:00N 29°37' W 095°01'0 0.7
2017-Sep-25 04:30N 29°37' W 095°01'4 8.0
2017-Sep-25 04:00N 29°36' W 094°57'611.4
2017-Sep-25 03:30N 29°31' W 094°53'  
2017-Sep-17 01:54N 28°34' W 094°25'410.1
2017-Sep-17 01:28N 28°38' W 094°25'510.0
2017-Sep-17 00:59N 28°43' W 094°25'55 4.9
2017-Sep-16 13:47N 29°32' W 094°54'2 8.9
2017-Sep-16 13:30N 29°34' W 094°55'4 7.9
2017-Sep-16 12:59N 29°37' W 094°59'2 3.9
2017-Sep-16 12:22N 29°37' W 095°01'0 0.0
2017-Sep-16 11:58N 29°37' W 095°01'0 0.0
2017-Sep-16 11:24N 29°37' W 095°01'0 0.0
2017-Sep-16 10:54N 29°37' W 095°01'0 0.0
2017-Sep-16 10:24N 29°37' W 095°01'0 0.0
2017-Sep-16 10:00N 29°37' W 095°01'0 0.0
2017-Sep-16 09:30N 29°37' W 095°01'0 0.0
2017-Sep-16 09:00N 29°37' W 095°01'0 0.0
2017-Sep-16 08:28N 29°37' W 095°01'0 0.0
2017-Sep-16 07:58N 29°37' W 095°01'  
Track history (hours):
 
Tides and Currents Weather Stations Pressure Air Temp Water Temp Dewpoint Dewpoint Depression Visibility Wind Speed Wind Dir Waves Ship Positions

Maya

Last reported at 2017-Sep-26 07:46 UTC. Time now 2017-Sep-26 09:30 UTC.
Position N 29°32' W 094°54'.

Length 119 m; draft 9.2 m.

Type: Ship (hazmat cat B). MMSI: 538002900.

Date/timePositionNaut miles runAvg speedWind from/ knotsBaromVisibWave heightAir tempDewpointWater temp
2017-Sep-26 07:46N 29°32' W 094°54'2 8.7
2017-Sep-26 07:30N 29°34' W 094°55'4 7.3
2017-Sep-26 06:55N 29°37' W 094°58'2 5.5
2017-Sep-26 06:30N 29°37' W 095°01'0 1.0
2017-Sep-26 06:00N 29°37' W 095°01'0 0.0
2017-Sep-26 05:30N 29°37' W 095°01'0 0.0
2017-Sep-26 05:00N 29°37' W 095°01'0 0.0
2017-Sep-26 04:30N 29°37' W 095°01'0 0.0
2017-Sep-26 04:00N 29°37' W 095°01'0 0.0
2017-Sep-26 03:30N 29°37' W 095°01'0 0.0
2017-Sep-26 02:55N 29°37' W 095°01'0 0.0
2017-Sep-26 02:25N 29°37' W 095°01'0 0.0
2017-Sep-26 02:00N 29°37' W 095°01'0 0.0
2017-Sep-26 01:24N 29°37' W 095°01'0 0.0
2017-Sep-26 00:55N 29°37' W 095°01'0 0.0
2017-Sep-26 00:25N 29°37' W 095°01'0 0.0
2017-Sep-26 00:00N 29°37' W 095°01'0 0.0
2017-Sep-25 23:30N 29°37' W 095°01'0 0.0
2017-Sep-25 23:00N 29°37' W 095°01'0 0.0
2017-Sep-25 22:25N 29°37' W 095°01'0 0.0
2017-Sep-25 21:50N 29°37' W 095°01'0 0.0
2017-Sep-25 21:30N 29°37' W 095°01'0 0.0
2017-Sep-25 20:56N 29°37' W 095°01'0 0.0
2017-Sep-25 20:26N 29°37' W 095°01'0 0.0
2017-Sep-25 19:48N 29°37' W 095°01'0 0.0
2017-Sep-25 19:26N 29°37' W 095°01'0 0.0
2017-Sep-25 19:00N 29°37' W 095°01'0 0.0
2017-Sep-25 18:26N 29°37' W 095°01'0 0.0
2017-Sep-25 18:00N 29°37' W 095°01'0 0.0
2017-Sep-25 17:30N 29°37' W 095°01'0 0.0
2017-Sep-25 17:00N 29°37' W 095°01'0 0.0
2017-Sep-25 16:30N 29°37' W 095°01'0 0.0
2017-Sep-25 16:00N 29°37' W 095°01'0 0.0
2017-Sep-25 15:30N 29°37' W 095°01'0 0.0
2017-Sep-25 15:00N 29°37' W 095°01'0 0.0
2017-Sep-25 14:26N 29°37' W 095°01'0 0.0
2017-Sep-25 14:00N 29°37' W 095°01'0 0.0
2017-Sep-25 13:30N 29°37' W 095°01'0 0.0
2017-Sep-25 12:56N 29°37' W 095°01'0 0.0
2017-Sep-25 12:24N 29°37' W 095°01'0 0.0
2017-Sep-25 12:00N 29°37' W 095°01'0 0.0
2017-Sep-25 10:00N 29°37' W 095°01'0 0.0
2017-Sep-25 09:30N 29°37' W 095°01'0 0.0
2017-Sep-25 09:00N 29°37' W 095°01'0 0.0
2017-Sep-25 08:30N 29°37' W 095°01'0 0.0
2017-Sep-25 07:56N 29°37' W 095°01'0 0.0
2017-Sep-25 07:30N 29°37' W 095°01'0 0.0
2017-Sep-25 06:56N 29°37' W 095°01'0 0.0
2017-Sep-25 06:30N 29°37' W 095°01'0 0.0
2017-Sep-25 05:56N 29°37' W 095°01'0 0.0
2017-Sep-25 05:30N 29°37' W 095°01'0 0.0
2017-Sep-25 05:00N 29°37' W 095°01'0 0.7
2017-Sep-25 04:30N 29°37' W 095°01'4 8.0
2017-Sep-25 04:00N 29°36' W 094°57'611.4
2017-Sep-25 03:30N 29°31' W 094°53'  
2017-Sep-17 01:54N 28°34' W 094°25'410.1
2017-Sep-17 01:28N 28°38' W 094°25'510.0
2017-Sep-17 00:59N 28°43' W 094°25'55 4.9
2017-Sep-16 13:47N 29°32' W 094°54'2 8.9
2017-Sep-16 13:30N 29°34' W 094°55'4 7.9
2017-Sep-16 12:59N 29°37' W 094°59'2 3.9
2017-Sep-16 12:22N 29°37' W 095°01'0 0.0
2017-Sep-16 11:58N 29°37' W 095°01'0 0.0
2017-Sep-16 11:24N 29°37' W 095°01'0 0.0
2017-Sep-16 10:54N 29°37' W 095°01'0 0.0
2017-Sep-16 10:24N 29°37' W 095°01'0 0.0
2017-Sep-16 10:00N 29°37' W 095°01'0 0.0
2017-Sep-16 09:30N 29°37' W 095°01'0 0.0
2017-Sep-16 09:00N 29°37' W 095°01'0 0.0
2017-Sep-16 08:28N 29°37' W 095°01'0 0.0
2017-Sep-16 07:58N 29°37' W 095°01'  

Dump ship's entire track history